Time;durP1;ratioP1;P1;durP2;ratioP2;P2;SDS_P1;SDS_P2;PMS_P1;PMS_P2;Temp;Humidity;BMP_temperature;BMP_pressure;BME280_temperature;BME280_humidity;BME280_pressure;Samples;Min_cycle;Max_cycle;Signal;HPM_P1;HPM_P2
2024/04/19 00:00:16;;;;;;;3.13;2.20;;;;;;;2.88;100.00;98361.88;6106484;19;20007;-76
2024/04/19 00:02:16;;;;;;;4.03;2.20;;;;;;;2.90;100.00;98354.19;6108668;19;20026;-76
2024/04/19 00:04:17;;;;;;;3.88;2.25;;;;;;;2.93;100.00;98356.25;6107053;19;20537;-76
2024/04/19 00:06:17;;;;;;;5.65;2.70;;;;;;;2.94;100.00;98355.09;6106567;19;20002;-76
2024/04/19 00:08:18;;;;;;;2.97;2.17;;;;;;;3.04;100.00;98353.91;6108409;19;20026;-76
2024/04/19 00:10:18;;;;;;;3.03;2.45;;;;;;;3.11;100.00;98351.47;6107830;19;20502;-76
2024/04/19 00:12:18;;;;;;;3.25;2.35;;;;;;;3.08;100.00;98349.41;6107055;19;20003;-75
2024/04/19 00:14:18;;;;;;;3.50;2.08;;;;;;;3.05;100.00;98345.38;6106984;19;20007;-76
2024/04/19 00:16:19;;;;;;;3.28;2.50;;;;;;;3.03;100.00;98336.72;6107499;19;20018;-76
2024/04/19 00:18:19;;;;;;;4.78;2.70;;;;;;;3.01;100.00;98336.25;6107677;19;20019;-76
2024/04/19 00:20:21;;;;;;;3.65;2.40;;;;;;;3.05;100.00;98342.63;6107879;19;20013;-76
2024/04/19 00:22:21;;;;;;;2.88;2.33;;;;;;;3.03;100.00;98333.19;6107507;19;20053;-76
2024/04/19 00:24:22;;;;;;;2.95;2.08;;;;;;;3.03;100.00;98336.72;6109155;19;20876;-76
2024/04/19 00:26:24;;;;;;;4.32;2.42;;;;;;;3.07;100.00;98334.13;6104627;19;20443;-76
2024/04/19 00:28:25;;;;;;;4.53;2.43;;;;;;;3.11;100.00;98335.06;6106287;19;20018;-76
2024/04/19 00:30:25;;;;;;;3.10;2.10;;;;;;;3.26;100.00;98336.41;6105992;19;20239;-76
2024/04/19 00:32:26;;;;;;;3.50;2.13;;;;;;;3.22;100.00;98328.06;6105419;19;20021;-75
2024/04/19 00:34:26;;;;;;;2.45;2.25;;;;;;;3.27;100.00;98329.78;6108572;19;20049;-75
2024/04/19 00:36:27;;;;;;;4.80;2.70;;;;;;;3.27;100.00;98325.13;6105182;19;20603;-75
2024/04/19 00:38:27;;;;;;;2.75;2.20;;;;;;;3.26;100.00;98320.78;6107302;19;20037;-76
2024/04/19 00:40:27;;;;;;;5.53;2.38;;;;;;;3.26;100.00;98309.84;6106461;19;20316;-76
2024/04/19 00:42:28;;;;;;;4.15;2.22;;;;;;;3.23;100.00;98307.81;6108206;19;20011;-75
2024/04/19 00:44:30;;;;;;;3.38;2.42;;;;;;;3.27;100.00;98314.19;6106255;19;20015;-75
2024/04/19 00:46:31;;;;;;;2.58;2.38;;;;;;;3.36;100.00;98308.66;6106712;19;20006;-76
2024/04/19 00:48:32;;;;;;;2.95;2.50;;;;;;;3.35;100.00;98309.78;6104964;19;20369;-76
2024/04/19 00:50:34;;;;;;;5.05;2.65;;;;;;;3.38;100.00;98306.38;6105338;19;20015;-77
2024/04/19 00:52:35;;;;;;;4.13;2.60;;;;;;;3.46;100.00;98300.03;6108779;19;20446;-76
2024/04/19 00:54:36;;;;;;;6.88;3.10;;;;;;;3.60;100.00;98302.50;6108366;19;20527;-75
2024/04/19 00:56:38;;;;;;;3.55;2.67;;;;;;;3.77;100.00;98290.56;6107268;19;20010;-77
2024/04/19 00:58:38;;;;;;;5.60;2.40;;;;;;;3.82;100.00;98299.38;6108152;19;20010;-75
2024/04/19 01:00:39;;;;;;;4.20;2.50;;;;;;;3.89;100.00;98302.38;6105010;19;20419;-76
2024/04/19 01:02:40;;;;;;;5.78;2.47;;;;;;;3.95;100.00;98294.72;6109341;19;20018;-77
2024/04/19 01:04:41;;;;;;;7.10;2.53;;;;;;;4.08;100.00;98290.09;6106987;19;20027;-75
2024/04/19 01:06:41;;;;;;;8.23;2.70;;;;;;;4.06;100.00;98281.41;6108173;19;20007;-76
2024/04/19 01:08:41;;;;;;;6.10;2.60;;;;;;;4.03;100.00;98284.81;6106875;19;20014;-75
2024/04/19 01:10:42;;;;;;;3.70;2.65;;;;;;;4.08;100.00;98279.94;6106468;19;20498;-75
2024/04/19 01:12:42;;;;;;;4.10;2.40;;;;;;;4.09;100.00;98280.72;6106394;19;20014;-75
2024/04/19 01:14:43;;;;;;;4.35;2.60;;;;;;;4.12;100.00;98280.03;6108854;19;20015;-76
2024/04/19 01:16:43;;;;;;;3.42;2.35;;;;;;;4.10;100.00;98272.16;6107173;19;20011;-75
2024/04/19 01:18:43;;;;;;;4.72;3.17;;;;;;;4.14;100.00;98272.31;6105758;19;20082;-75
2024/04/19 01:20:44;;;;;;;5.13;3.10;;;;;;;4.24;100.00;98260.91;6104416;19;20011;-76
2024/04/19 01:22:46;;;;;;;3.60;2.80;;;;;;;4.22;100.00;98269.47;6105841;19;20006;-76
2024/04/19 01:24:51;;;;;;;4.22;2.80;;;;;;;4.21;100.00;98264.31;6105423;19;20578;-76
2024/04/19 01:26:51;;;;;;;3.67;2.40;;;;;;;4.16;100.00;98268.06;6106243;19;20373;-76
2024/04/19 01:28:52;;;;;;;4.05;2.60;;;;;;;4.13;100.00;98262.47;6106117;19;20706;-76
2024/04/19 01:30:52;;;;;;;3.85;2.80;;;;;;;4.14;100.00;98244.91;6107136;19;20619;-75
2024/04/19 01:32:52;;;;;;;4.43;2.60;;;;;;;4.21;100.00;98250.59;6107995;19;20010;-76
2024/04/19 01:34:52;;;;;;;3.90;2.92;;;;;;;4.23;100.00;98251.09;6105030;19;20022;-76
2024/04/19 01:36:53;;;;;;;3.75;3.10;;;;;;;4.36;100.00;98246.41;6105570;19;20551;-77
2024/04/19 01:38:53;;;;;;;4.22;3.83;;;;;;;4.29;100.00;98238.75;6116478;19;20102;-77
2024/04/19 01:40:54;;;;;;;7.18;3.20;;;;;;;4.27;100.00;98229.28;6118764;19;20051;-76
2024/04/19 01:42:54;;;;;;;4.15;3.28;;;;;;;4.30;100.00;98232.13;6117957;19;20705;-76
2024/04/19 01:44:56;;;;;;;3.83;3.00;;;;;;;4.30;100.00;98226.66;6118400;19;20043;-76
2024/04/19 01:46:56;;;;;;;5.75;2.97;;;;;;;4.34;100.00;98215.81;6117862;19;20470;-76
2024/04/19 01:48:56;;;;;;;4.68;2.90;;;;;;;4.30;100.00;98215.69;6115972;19;20019;-78
2024/04/19 01:50:57;;;;;;;5.32;3.17;;;;;;;4.29;100.00;98225.03;6116377;19;20011;-76
2024/04/19 01:52:57;;;;;;;5.25;3.30;;;;;;;4.25;100.00;98210.47;6116581;19;20513;-76
2024/04/19 01:54:57;;;;;;;4.07;3.10;;;;;;;4.23;100.00;98210.00;6117396;19;20010;-76
2024/04/19 01:56:59;;;;;;;4.65;3.08;;;;;;;4.28;100.00;98217.19;6116309;19;20017;-76
2024/04/19 01:58:59;;;;;;;5.25;3.58;;;;;;;4.31;100.00;98206.34;6118534;19;20082;-76
2024/04/19 02:01:00;;;;;;;5.80;3.55;;;;;;;4.28;100.00;98201.53;6117311;19;20306;-76
2024/04/19 02:03:01;;;;;;;6.07;3.78;;;;;;;4.28;100.00;98195.28;6116297;19;20013;-76
2024/04/19 02:05:01;;;;;;;7.40;3.90;;;;;;;4.27;100.00;98193.69;6115972;19;20002;-76
2024/04/19 02:07:02;;;;;;;6.18;4.45;;;;;;;4.32;100.00;98187.97;6118886;19;20023;-76
2024/04/19 02:09:03;;;;;;;5.60;3.92;;;;;;;4.35;100.00;98190.81;6117578;19;20005;-76
2024/04/19 02:11:04;;;;;;;4.45;3.63;;;;;;;4.43;100.00;98180.88;6115677;19;20470;-76
2024/04/19 02:13:05;;;;;;;8.80;5.05;;;;;;;4.34;100.00;98181.00;6116858;19;20865;-76
2024/04/19 02:15:05;;;;;;;5.97;4.43;;;;;;;4.38;100.00;98170.16;6116105;19;20010;-76
2024/04/19 02:17:06;;;;;;;6.50;5.10;;;;;;;4.33;100.00;98168.47;6117402;19;20009;-76
2024/04/19 02:19:06;;;;;;;8.05;5.25;;;;;;;4.34;100.00;98161.03;6117724;19;20501;-76
2024/04/19 02:21:06;;;;;;;6.43;4.70;;;;;;;4.33;100.00;98157.50;6117984;19;20001;-76
2024/04/19 02:23:06;;;;;;;7.05;4.90;;;;;;;4.32;100.00;98157.84;6115635;19;20003;-76
2024/04/19 02:25:07;;;;;;;8.05;5.25;;;;;;;4.30;100.00;98155.44;6117955;19;20066;-76
2024/04/19 02:30:51;;;;;;;7.72;4.90;;;;;;;4.36;100.00;98150.53;6118248;19;20084;-76
2024/04/19 02:31:46;;;;;;;8.07;5.40;;;;;;;4.54;100.00;98138.16;6116540;19;20022;-77
2024/04/19 02:33:47;;;;;;;13.60;6.10;;;;;;;4.49;100.00;98133.72;6118574;19;19999;-76
2024/04/19 02:35:48;;;;;;;6.78;5.22;;;;;;;4.43;100.00;98129.63;6114572;19;20021;-76
2024/04/19 02:37:48;;;;;;;7.85;5.70;;;;;;;4.41;100.00;98129.19;6116327;19;20006;-76
2024/04/19 02:39:48;;;;;;;7.18;5.30;;;;;;;4.38;100.00;98123.59;6108378;19;20014;-76
2024/04/19 02:41:48;;;;;;;7.47;6.22;;;;;;;4.40;100.00;98130.34;6115481;19;20016;-77
2024/04/19 02:43:49;;;;;;;8.95;6.10;;;;;;;4.40;100.00;98115.84;6116288;19;20014;-77
2024/04/19 02:45:49;;;;;;;9.65;6.57;;;;;;;4.37;100.00;98122.78;6117236;19;20026;-76
2024/04/19 02:47:49;;;;;;;8.82;6.32;;;;;;;4.36;100.00;98114.91;6113602;19;20471;-76
2024/04/19 02:49:50;;;;;;;9.77;6.97;;;;;;;4.39;100.00;98117.78;6109921;19;20027;-76
2024/04/19 02:51:50;;;;;;;12.05;6.65;;;;;;;4.39;100.00;98112.31;6110914;19;20045;-78
2024/04/19 02:53:50;;;;;;;8.02;6.05;;;;;;;4.40;100.00;98105.69;6111225;19;20391;-76
2024/04/19 02:55:51;;;;;;;10.60;6.47;;;;;;;4.39;100.00;98108.78;6110747;19;20074;-76
2024/04/19 02:57:52;;;;;;;8.98;6.22;;;;;;;4.43;100.00;98112.41;6108808;19;20066;-77
2024/04/19 02:59:52;;;;;;;10.38;7.40;;;;;;;4.35;100.00;98103.16;6109764;19;20401;-76
2024/04/19 03:01:52;;;;;;;11.85;6.93;;;;;;;4.34;100.00;98101.56;6107856;19;20009;-76
2024/04/19 03:03:53;;;;;;;8.73;6.95;;;;;;;4.34;100.00;98101.56;6110853;19;20447;-76
2024/04/19 03:05:54;;;;;;;11.63;6.20;;;;;;;4.35;100.00;98094.94;6108055;19;20472;-77
2024/04/19 03:07:54;;;;;;;8.32;6.50;;;;;;;4.35;100.00;98091.41;6109308;19;20018;-76
2024/04/19 03:09:54;;;;;;;11.27;6.82;;;;;;;4.38;100.00;98085.22;6107692;19;20017;-76
2024/04/19 03:11:55;;;;;;;8.35;6.20;;;;;;;4.44;100.00;98081.91;6107765;19;20573;-76
2024/04/19 03:13:55;;;;;;;10.57;6.57;;;;;;;4.45;100.00;98079.97;6108020;19;20035;-76
2024/04/19 03:16:09;;;;;;;10.07;6.78;;;;;;;4.43;100.00;98072.09;6107857;19;20528;-76
2024/04/19 03:18:09;;;;;;;12.00;6.45;;;;;;;4.40;100.00;98067.34;6107269;19;20003;-76
2024/04/19 03:20:09;;;;;;;11.35;6.93;;;;;;;4.45;100.00;98060.78;6107709;19;20396;-76
2024/04/19 03:22:10;;;;;;;8.10;6.13;;;;;;;4.42;100.00;98056.81;6109458;19;20032;-76
2024/04/19 03:24:10;;;;;;;9.10;5.95;;;;;;;4.42;100.00;98053.28;6108541;19;20610;-77
2024/04/19 03:26:10;;;;;;;10.82;6.78;;;;;;;4.41;100.00;98051.69;6107448;19;20013;-76
2024/04/19 03:28:10;;;;;;;9.80;6.43;;;;;;;4.37;100.00;98046.09;6108814;19;20006;-76
2024/04/19 03:30:11;;;;;;;9.70;6.88;;;;;;;4.36;100.00;98040.97;6109515;19;20609;-77
2024/04/19 03:32:11;;;;;;;8.13;5.82;;;;;;;4.40;100.00;98044.63;6108469;19;20082;-76
2024/04/19 03:34:12;;;;;;;9.50;7.45;;;;;;;4.43;100.00;98035.69;6108563;19;20569;-76
2024/04/19 03:36:12;;;;;;;10.25;6.82;;;;;;;4.49;100.00;98026.09;6107379;19;20374;-76
2024/04/19 03:38:14;;;;;;;10.48;6.88;;;;;;;4.54;100.00;98025.03;6107119;19;20349;-76
2024/04/19 03:40:14;;;;;;;8.90;6.88;;;;;;;4.58;100.00;98021.25;6103347;19;20010;-77
2024/04/19 03:42:18;;;;;;;9.73;7.10;;;;;;;4.57;100.00;98019.66;6102560;19;20002;-77
2024/04/19 03:46:37;;;;;;;11.43;7.55;;;;;;;4.61;100.00;98008.78;6102246;19;20095;-76
2024/04/19 03:48:38;;;;;;;10.50;6.65;;;;;;;4.64;100.00;98003.44;6100970;19;20007;-76
2024/04/19 03:50:38;;;;;;;10.02;6.75;;;;;;;4.71;100.00;97995.38;6101525;19;20006;-76
2024/04/19 03:52:39;;;;;;;10.60;6.57;;;;;;;4.71;100.00;97997.31;6102612;19;20487;-76
2024/04/19 03:54:41;;;;;;;9.38;6.20;;;;;;;4.72;100.00;97993.47;6103250;19;20021;-76
2024/04/19 03:56:41;;;;;;;9.95;6.22;;;;;;;4.76;100.00;97997.06;6101507;19;20234;-76
2024/04/19 03:58:41;;;;;;;9.90;6.70;;;;;;;4.77;100.00;97991.22;6102296;19;20026;-76
2024/04/19 04:00:42;;;;;;;9.20;6.30;;;;;;;4.80;100.00;97984.28;6099372;19;20034;-77
2024/04/19 04:02:42;;;;;;;9.25;6.40;;;;;;;4.77;100.00;97984.97;6100299;19;20028;-77
2024/04/19 04:04:44;;;;;;;9.68;6.68;;;;;;;4.77;100.00;97976.72;6100222;19;20040;-76
2024/04/19 04:06:45;;;;;;;10.02;6.55;;;;;;;4.75;100.00;97979.03;6101809;19;20472;-77
2024/04/19 04:08:46;;;;;;;9.95;6.03;;;;;;;4.78;100.00;97970.09;6101016;19;20014;-76
2024/04/19 04:10:46;;;;;;;12.00;6.28;;;;;;;4.82;100.00;97971.00;6100320;19;20015;-76
2024/04/19 04:12:46;;;;;;;7.72;5.75;;;;;;;4.80;100.00;97962.34;6099705;19;20019;-76
2024/04/19 04:14:46;;;;;;;10.23;5.97;;;;;;;4.84;100.00;97956.94;6099925;19;20007;-76
2024/04/19 04:16:47;;;;;;;8.75;6.18;;;;;;;4.83;100.00;97964.38;6101920;19;20010;-76
2024/04/19 04:18:48;;;;;;;6.97;5.72;;;;;;;4.81;100.00;97952.97;6100314;19;20014;-76
2024/04/19 04:20:48;;;;;;;10.02;5.93;;;;;;;4.83;100.00;97950.66;6097175;19;20078;-76
2024/04/19 04:22:48;;;;;;;7.90;6.18;;;;;;;4.78;100.00;97962.69;6098939;19;20010;-77
2024/04/19 04:24:49;;;;;;;7.30;5.85;;;;;;;4.77;100.00;97947.38;6099412;19;20946;-76
2024/04/19 04:26:49;;;;;;;8.65;5.55;;;;;;;4.79;100.00;97942.34;6098808;19;20010;-76
2024/04/19 04:28:49;;;;;;;9.30;5.80;;;;;;;4.82;100.00;97938.13;6097952;19;20554;-76
2024/04/19 04:30:50;;;;;;;8.02;5.60;;;;;;;4.79;100.00;97933.31;6099975;19;20006;-76
2024/04/19 04:32:50;;;;;;;11.13;5.82;;;;;;;4.79;100.00;97945.06;6099121;19;20013;-76
2024/04/19 04:34:51;;;;;;;9.63;5.90;;;;;;;4.77;100.00;97938.38;6100957;19;20074;-77
2024/04/19 04:36:51;;;;;;;10.60;6.03;;;;;;;4.70;100.00;97941.72;6100066;19;20027;-76
2024/04/19 04:38:52;;;;;;;8.35;5.10;;;;;;;4.73;100.00;97935.53;6100040;19;20334;-76
2024/04/19 04:40:52;;;;;;;8.32;5.53;;;;;;;4.68;100.00;97937.75;6103343;19;20054;-76
2024/04/19 04:42:52;;;;;;;8.40;5.78;;;;;;;4.71;100.00;97928.81;6105343;19;20501;-76
2024/04/19 04:44:53;;;;;;;7.05;5.78;;;;;;;4.84;100.00;97926.78;6106324;19;20007;-76
2024/04/19 04:46:53;;;;;;;8.73;5.10;;;;;;;4.85;100.00;97940.13;6108069;19;20017;-76
2024/04/19 04:48:53;;;;;;;8.98;5.50;;;;;;;4.84;100.00;97945.97;6108739;19;20082;-77
2024/04/19 04:50:53;;;;;;;10.13;5.60;;;;;;;4.86;100.00;97943.66;6108407;19;20016;-76
2024/04/19 04:52:56;;;;;;;9.18;6.05;;;;;;;4.83;100.00;97938.91;6108099;19;20006;-76
2024/04/19 04:54:56;;;;;;;8.80;5.47;;;;;;;4.79;100.00;97947.03;6108627;19;20418;-77
2024/04/19 04:56:57;;;;;;;8.35;5.93;;;;;;;4.74;100.00;97945.34;6104751;19;20010;-76
2024/04/19 04:58:57;;;;;;;8.60;5.10;;;;;;;4.72;100.00;97935.91;6106401;19;20327;-76
2024/04/19 05:00:57;;;;;;;7.65;5.47;;;;;;;4.64;100.00;97929.44;6107501;19;20343;-76
2024/04/19 05:02:58;;;;;;;8.85;5.50;;;;;;;4.57;100.00;97931.19;6107904;19;20436;-75
2024/04/19 05:04:58;;;;;;;9.15;5.60;;;;;;;4.54;100.00;97934.63;6106050;19;20006;-76
2024/04/19 05:06:59;;;;;;;9.00;5.93;;;;;;;4.45;100.00;97935.59;6107090;19;20011;-75
2024/04/19 05:08:59;;;;;;;7.35;5.70;;;;;;;4.37;100.00;97942.00;6108138;19;20010;-75
2024/04/19 05:10:59;;;;;;;8.18;5.88;;;;;;;4.38;100.00;97923.63;6105588;19;20613;-76
2024/04/19 05:13:00;;;;;;;11.50;6.20;;;;;;;4.36;100.00;97923.19;6106239;19;20007;-76
2024/04/19 05:15:00;;;;;;;9.32;6.07;;;;;;;4.45;100.00;97916.41;6105371;19;20014;-76
2024/04/19 05:17:00;;;;;;;11.43;6.40;;;;;;;4.44;100.00;97912.06;6108360;19;20006;-76
2024/04/19 05:19:01;;;;;;;10.38;6.28;;;;;;;4.41;100.00;97917.47;6107367;19;20352;-77
2024/04/19 05:21:01;;;;;;;9.52;6.20;;;;;;;4.43;100.00;97904.22;6106945;19;20002;-76
2024/04/19 05:23:01;;;;;;;10.88;6.75;;;;;;;4.42;100.00;97900.69;6106515;19;20042;-75
2024/04/19 05:25:02;;;;;;;9.18;5.75;;;;;;;4.45;100.00;97896.44;6107251;19;20256;-76
2024/04/19 05:27:02;;;;;;;8.63;5.22;;;;;;;4.44;100.00;97900.31;6107898;19;20022;-76
2024/04/19 05:29:03;;;;;;;7.53;5.72;;;;;;;4.44;100.00;97883.88;6108346;19;20014;-75
2024/04/19 05:31:03;;;;;;;10.52;5.70;;;;;;;4.44;100.00;97894.84;6107953;19;20392;-76
2024/04/19 05:33:05;;;;;;;8.77;5.78;;;;;;;4.51;100.00;97878.59;6108010;19;20343;-76
2024/04/19 05:35:06;;;;;;;8.10;5.47;;;;;;;4.50;100.00;97883.28;6105977;19;20011;-75
2024/04/19 05:37:06;;;;;;;8.15;5.72;;;;;;;4.53;100.00;97875.50;6108051;19;20499;-75
2024/04/19 05:39:06;;;;;;;9.95;5.95;;;;;;;4.52;100.00;97871.97;6107381;19;20034;-76
2024/04/19 05:41:06;;;;;;;8.02;5.63;;;;;;;4.54;100.00;97872.41;6107082;19;20015;-75
2024/04/19 05:43:07;;;;;;;8.90;6.20;;;;;;;4.56;100.00;97867.38;6106623;19;20029;-75
2024/04/19 05:45:07;;;;;;;7.47;5.80;;;;;;;4.59;100.00;97868.63;6108182;19;20034;-75
2024/04/19 05:47:09;;;;;;;10.70;6.82;;;;;;;4.60;100.00;97862.78;6105633;19;20098;-75
2024/04/19 05:49:09;;;;;;;6.47;5.35;;;;;;;4.60;100.00;97854.56;6106883;19;20040;-75
2024/04/19 05:51:10;;;;;;;7.63;5.25;;;;;;;4.67;100.00;97864.91;6105140;19;20014;-75
2024/04/19 05:53:10;;;;;;;6.57;5.15;;;;;;;4.65;100.00;97861.72;6106484;19;20086;-75
2024/04/19 05:55:10;;;;;;;9.32;6.38;;;;;;;4.63;100.00;97859.31;6106557;19;20045;-75
2024/04/19 05:57:11;;;;;;;6.75;4.90;;;;;;;4.51;100.00;97852.00;6108238;19;20002;-75
2024/04/19 05:59:11;;;;;;;9.00;4.93;;;;;;;4.48;100.00;97852.72;6105781;19;20074;-75
2024/04/19 06:01:12;;;;;;;7.50;4.47;;;;;;;4.44;100.00;97849.06;6107337;19;20003;-75
2024/04/19 06:03:12;;;;;;;5.80;4.35;;;;;;;4.39;100.00;97838.41;6107593;19;20003;-75
2024/04/19 06:05:13;;;;;;;6.13;4.25;;;;;;;4.41;100.00;97829.81;6108053;19;20039;-76
2024/04/19 06:07:13;;;;;;;6.43;4.60;;;;;;;4.47;100.00;97825.69;6108100;19;20354;-74
2024/04/19 06:09:14;;;;;;;6.65;4.20;;;;;;;4.43;100.00;97828.31;6103980;19;20003;-75
2024/04/19 06:11:14;;;;;;;7.07;3.97;;;;;;;4.46;100.00;97824.84;6105591;19;20487;-75
2024/04/19 06:13:15;;;;;;;5.28;4.25;;;;;;;4.53;100.00;97817.97;6107023;19;20013;-75
2024/04/19 06:15:15;;;;;;;6.00;3.80;;;;;;;4.60;100.00;97816.19;6106794;19;20349;-74
2024/04/19 06:17:15;;;;;;;4.70;3.50;;;;;;;4.61;100.00;97812.31;6107150;19;20002;-75
2024/04/19 06:19:16;;;;;;;4.90;3.60;;;;;;;4.66;100.00;97808.53;6106951;19;20002;-75
2024/04/19 06:21:16;;;;;;;4.80;3.90;;;;;;;4.63;100.00;97793.56;6106179;19;20006;-75
2024/04/19 06:23:16;;;;;;;5.25;3.55;;;;;;;4.71;100.00;97787.09;6107313;19;20066;-75
2024/04/19 06:25:17;;;;;;;4.35;3.28;;;;;;;4.83;100.00;97788.16;6108660;19;20003;-75
2024/04/19 06:27:17;;;;;;;3.88;2.80;;;;;;;4.86;100.00;97777.25;6113424;19;20348;-75
2024/04/19 06:29:18;;;;;;;5.03;2.70;;;;;;;4.87;100.00;97776.09;6104688;19;20007;-75
2024/04/19 06:31:18;;;;;;;3.38;2.90;;;;;;;4.90;100.00;97774.63;6111459;19;20017;-75
2024/04/19 06:33:19;;;;;;;3.00;2.47;;;;;;;4.97;100.00;97778.31;6110831;19;20482;-75
2024/04/19 06:35:19;;;;;;;5.53;3.05;;;;;;;4.90;100.00;97766.41;6112750;19;20062;-75
2024/04/19 06:37:19;;;;;;;3.88;2.90;;;;;;;4.90;100.00;97760.91;6111633;19;20029;-75
2024/04/19 06:39:22;;;;;;;4.50;2.80;;;;;;;4.87;100.00;97754.19;6111471;19;20504;-76
2024/04/19 06:41:22;;;;;;;3.92;2.72;;;;;;;4.87;100.00;97764.34;6111630;19;20356;-76
2024/04/19 06:43:23;;;;;;;3.45;2.70;;;;;;;4.92;100.00;97747.63;6110942;19;20020;-75
2024/04/19 06:45:23;;;;;;;4.68;2.42;;;;;;;4.97;100.00;97744.63;6112660;19;20070;-76
2024/04/19 06:47:23;;;;;;;3.03;2.47;;;;;;;5.01;100.00;97742.75;6111338;19;20052;-75
2024/04/19 06:49:24;;;;;;;3.10;2.33;;;;;;;5.00;100.00;97741.94;6112061;19;19998;-75
2024/04/19 06:51:24;;;;;;;2.40;2.05;;;;;;;5.10;100.00;97737.03;6112274;19;19998;-76
2024/04/19 06:53:24;;;;;;;3.47;2.55;;;;;;;5.11;100.00;97727.66;6109628;19;19999;-75
2024/04/19 06:55:25;;;;;;;3.60;2.08;;;;;;;5.16;100.00;97724.66;6112502;19;20095;-75
2024/04/19 06:57:25;;;;;;;2.65;2.10;;;;;;;5.07;100.00;97714.69;6112916;19;20504;-76
2024/04/19 06:59:25;;;;;;;2.50;2.00;;;;;;;5.16;100.00;97717.22;6110200;19;20010;-75
2024/04/19 07:01:26;;;;;;;3.17;2.00;;;;;;;5.15;100.00;97699.19;6109694;19;20002;-76
2024/04/19 07:03:26;;;;;;;2.28;1.92;;;;;;;5.15;100.00;97701.91;6112765;19;20006;-75
2024/04/19 07:05:26;;;;;;;2.53;1.98;;;;;;;5.14;100.00;97683.88;6110148;19;20001;-76
2024/04/19 07:07:27;;;;;;;2.20;1.70;;;;;;;5.11;100.00;97679.09;6112383;19;20002;-75
2024/04/19 07:09:27;;;;;;;2.45;2.05;;;;;;;5.11;100.00;97667.34;6109816;19;20023;-76
2024/04/19 07:11:27;;;;;;;3.20;1.92;;;;;;;5.15;100.00;97677.25;6108701;19;20016;-75
2024/04/19 07:13:29;;;;;;;2.33;1.90;;;;;;;5.19;100.00;97666.31;6111395;19;20043;-76
2024/04/19 07:15:30;;;;;;;3.92;2.20;;;;;;;5.27;100.00;97665.31;6108619;19;20010;-76
2024/04/19 07:17:33;;;;;;;2.00;1.80;;;;;;;5.30;100.00;97670.09;6111988;19;20006;-75
2024/04/19 07:19:34;;;;;;;2.13;1.73;;;;;;;5.38;100.00;97665.50;6110826;19;20066;-76
2024/04/19 07:21:34;;;;;;;2.88;1.95;;;;;;;5.38;100.00;97660.00;6109657;19;20434;-75
2024/04/19 07:23:34;;;;;;;2.13;1.60;;;;;;;5.32;100.00;97660.34;6109797;19;20020;-75
2024/04/19 07:25:35;;;;;;;2.40;1.77;;;;;;;5.31;100.00;97660.69;6109050;19;20010;-76
2024/04/19 07:27:35;;;;;;;2.17;1.70;;;;;;;5.35;100.00;97648.63;6109454;19;20005;-76
2024/04/19 07:29:36;;;;;;;2.92;1.45;;;;;;;5.40;100.00;97644.00;6110067;19;20006;-76
2024/04/19 07:31:36;;;;;;;3.03;1.17;;;;;;;5.43;100.00;97655.03;6108394;19;20747;-76
2024/04/19 07:33:36;;;;;;;2.00;1.38;;;;;;;5.39;100.00;97654.19;6108328;19;20032;-76
2024/04/19 07:35:37;;;;;;;1.30;1.20;;;;;;;5.39;100.00;97653.41;6108862;19;20020;-75
2024/04/19 07:37:37;;;;;;;2.88;1.27;;;;;;;5.31;100.00;97646.97;6108371;19;20078;-75
2024/04/19 07:39:37;;;;;;;1.08;1.00;;;;;;;5.26;100.00;97642.56;6099848;19;20470;-76
2024/04/19 07:41:38;;;;;;;1.38;1.10;;;;;;;5.32;100.00;97648.56;6109455;19;20002;-77
2024/04/19 07:43:38;;;;;;;1.10;1.00;;;;;;;5.20;100.00;97633.06;6109435;19;20025;-76
2024/04/19 07:45:39;;;;;;;1.67;1.35;;;;;;;5.35;100.00;97623.94;6108807;19;20090;-76
2024/04/19 07:47:39;;;;;;;1.45;1.00;;;;;;;5.37;100.00;97629.06;6110689;19;20015;-75
2024/04/19 07:49:39;;;;;;;2.40;1.10;;;;;;;5.38;100.00;97611.47;6108754;19;20024;-75
2024/04/19 07:51:40;;;;;;;1.67;0.90;;;;;;;5.38;100.00;97616.94;6107019;19;20085;-76
2024/04/19 07:53:42;;;;;;;1.83;1.23;;;;;;;5.38;100.00;97607.91;6110371;19;20022;-77
2024/04/19 07:55:43;;;;;;;1.85;0.70;;;;;;;5.39;100.00;97602.06;6107850;19;20070;-75
2024/04/19 07:57:47;;;;;;;1.88;1.00;;;;;;;5.45;100.00;97592.34;6108512;19;20015;-75
2024/04/19 07:59:48;;;;;;;1.02;0.85;;;;;;;5.41;100.00;97593.47;6109221;19;20010;-76
2024/04/19 08:01:48;;;;;;;1.88;0.90;;;;;;;5.49;100.00;97603.41;6109354;19;20062;-75
2024/04/19 08:03:48;;;;;;;1.10;1.00;;;;;;;5.48;100.00;97602.63;6109212;19;20038;-75
2024/04/19 08:05:50;;;;;;;0.88;0.88;;;;;;;5.49;100.00;97600.66;6109794;19;20074;-76
2024/04/19 08:07:51;;;;;;;1.15;1.05;;;;;;;5.56;100.00;97584.34;6108237;19;20011;-75
2024/04/19 08:09:53;;;;;;;1.88;1.20;;;;;;;5.60;100.00;97580.47;6108783;19;20034;-75
2024/04/19 08:11:53;;;;;;;0.88;0.82;;;;;;;5.60;100.00;97579.69;6110409;19;20017;-76
2024/04/19 08:13:53;;;;;;;0.80;0.70;;;;;;;5.72;100.00;97579.50;6109050;19;20007;-76
2024/04/19 08:15:54;;;;;;;0.80;0.80;;;;;;;5.67;100.00;97573.53;6107072;19;20002;-75
2024/04/19 08:17:54;;;;;;;0.90;0.80;;;;;;;5.74;100.00;97565.41;6108931;19;20010;-76
2024/04/19 08:19:54;;;;;;;0.80;0.80;;;;;;;5.73;100.00;97572.06;6106050;19;20018;-76
2024/04/19 08:21:55;;;;;;;1.30;1.00;;;;;;;5.76;100.00;97549.34;6108380;19;20018;-76
2024/04/19 08:23:55;;;;;;;0.80;0.80;;;;;;;5.70;100.00;97553.56;6109498;19;20021;-76
2024/04/19 08:25:55;;;;;;;1.00;0.90;;;;;;;5.70;100.00;97556.31;6108913;19;20052;-76
2024/04/19 08:27:56;;;;;;;0.80;0.80;;;;;;;5.59;100.00;97554.19;6108814;19;20476;-75
2024/04/19 08:29:56;;;;;;;1.23;0.93;;;;;;;5.56;100.00;97541.22;6108306;19;20038;-76
2024/04/19 08:31:56;;;;;;;0.90;0.88;;;;;;;5.53;100.00;97552.91;6108557;19;20025;-76
2024/04/19 08:33:57;;;;;;;2.05;0.98;;;;;;;5.49;100.00;97546.59;6107052;19;20017;-76
2024/04/19 08:35:58;;;;;;;2.60;1.02;;;;;;;5.55;100.00;97525.91;6107367;19;20019;-75
2024/04/19 08:37:58;;;;;;;1.30;1.10;;;;;;;5.46;100.00;97525.38;6108240;19;20019;-76
2024/04/19 08:39:59;;;;;;;1.85;1.10;;;;;;;5.36;100.00;97532.25;6104162;19;20006;-76
2024/04/19 08:42:04;;;;;;;1.67;1.08;;;;;;;5.38;100.00;97531.91;6101938;19;20006;-76
2024/04/19 08:44:05;;;;;;;2.25;1.00;;;;;;;5.35;100.00;97522.44;6098140;19;20017;-76
2024/04/19 08:46:07;;;;;;;1.20;1.10;;;;;;;5.41;100.00;97513.91;6102310;19;19999;-76
2024/04/19 08:48:08;;;;;;;1.25;1.00;;;;;;;5.48;100.00;97498.38;6099163;19;20066;-75
2024/04/19 08:50:09;;;;;;;1.35;1.20;;;;;;;5.47;100.00;97499.53;6101322;19;20003;-76
2024/04/19 08:52:09;;;;;;;1.08;0.98;;;;;;;5.43;100.00;97493.19;6099625;19;20099;-76
2024/04/19 08:54:11;;;;;;;1.42;1.20;;;;;;;5.48;100.00;97490.13;6099662;19;20030;-76
2024/04/19 08:56:12;;;;;;;1.77;1.38;;;;;;;5.38;100.00;97484.47;6101115;19;20007;-76
2024/04/19 08:58:13;;;;;;;1.10;0.95;;;;;;;5.40;100.00;97490.41;6101768;19;20034;-75
2024/04/19 09:00:13;;;;;;;0.70;0.70;;;;;;;5.48;100.00;97492.09;6100800;19;19998;-75
2024/04/19 09:02:14;;;;;;;1.48;1.10;;;;;;;5.34;100.00;97485.19;6101244;19;20557;-75
2024/04/19 09:04:14;;;;;;;3.15;1.95;;;;;;;5.39;100.00;97483.31;6101283;19;20035;-75
2024/04/19 09:06:14;;;;;;;0.90;0.82;;;;;;;5.35;100.00;97486.78;6101058;19;20014;-75
2024/04/19 09:08:16;;;;;;;0.82;0.82;;;;;;;5.42;100.00;97496.28;6100595;19;20026;-75
2024/04/19 09:10:18;;;;;;;1.70;1.15;;;;;;;5.48;100.00;97492.09;6100756;19;20419;-75
2024/04/19 09:12:19;;;;;;;1.67;1.10;;;;;;;5.52;100.00;97498.41;6101637;19;20006;-75
2024/04/19 09:14:19;;;;;;;1.02;0.90;;;;;;;5.55;100.00;97501.22;6101544;19;20469;-75
2024/04/19 09:16:20;;;;;;;3.90;2.22;;;;;;;5.61;100.00;97493.44;6101674;19;20276;-75
2024/04/19 09:18:22;;;;;;;3.17;1.35;;;;;;;5.64;100.00;97499.00;6101019;19;20474;-75
2024/04/19 09:20:25;;;;;;;1.73;1.10;;;;;;;5.70;100.00;97495.94;6100271;19;20364;-75
2024/04/19 09:22:26;;;;;;;3.53;2.13;;;;;;;5.77;100.00;97494.09;6098097;19;20144;-75
2024/04/19 09:24:26;;;;;;;1.42;1.10;;;;;;;5.77;100.00;97487.81;6100463;19;21602;-75
2024/04/19 09:26:27;;;;;;;1.98;0.98;;;;;;;5.78;100.00;97483.91;6101587;19;20542;-75
2024/04/19 09:28:31;;;;;;;1.40;1.10;;;;;;;5.73;100.00;97470.50;6100080;19;20331;-75
2024/04/19 09:30:31;;;;;;;0.85;0.70;;;;;;;5.74;100.00;97463.84;6099528;19;20459;-75